Niles, Ohio
Current Conditions -  °F | °C
As of 10:51 AM on Sunday 23 Nov 2014 (Local Time) from KYNG Reporting Station
Broken Clouds Broken Clouds  
Wind Chill: 50°   Ceiling: 5000
Heat Index: 50°   Visibility: 10mi
Dew Point: 35°   Wind: 9mph
Humidity: 57%   Direction: 160°SSE
Pressure: 30.03"   Gusts: NA
Location:  41.18°N, 80.76°W
Report Text: KYNG 231551Z 16008KT 10SM SCT027 BKN050 BKN170 BKN250 10/02 A3003 RMK AO2 SLP171 T01000017
Loading
Personal Weather Stations






























Interactive Weather Map New forecast layout! Learn more

10-Day Weather Forecast

Advertisements
Track Severe Weather on mobile